sensor_id;sensor_type;location;lat;lon;timestamp;P1;durP1;ratioP1;P2;durP2;ratioP2
6185;SDS011;3126;52.738;8.316;2022-10-18T00:03:05;41.63;;;24.02;;
6185;SDS011;3126;52.738;8.316;2022-10-18T00:08:06;41.20;;;25.20;;
6185;SDS011;3126;52.738;8.316;2022-10-18T00:13:06;44.03;;;24.55;;
6185;SDS011;3126;52.738;8.316;2022-10-18T00:18:07;47.38;;;24.15;;
6185;SDS011;3126;52.738;8.316;2022-10-18T00:23:08;37.67;;;22.42;;
6185;SDS011;3126;52.738;8.316;2022-10-18T00:28:08;33.25;;;21.85;;
6185;SDS011;3126;52.738;8.316;2022-10-18T00:33:09;47.30;;;24.00;;
6185;SDS011;3126;52.738;8.316;2022-10-18T00:38:09;48.00;;;26.13;;
6185;SDS011;3126;52.738;8.316;2022-10-18T00:43:12;50.08;;;24.80;;
6185;SDS011;3126;52.738;8.316;2022-10-18T00:48:14;38.67;;;22.88;;
6185;SDS011;3126;52.738;8.316;2022-10-18T00:53:17;45.67;;;25.00;;
6185;SDS011;3126;52.738;8.316;2022-10-18T00:58:21;49.60;;;25.48;;
6185;SDS011;3126;52.738;8.316;2022-10-18T01:03:21;42.60;;;25.33;;
6185;SDS011;3126;52.738;8.316;2022-10-18T01:08:31;38.20;;;22.77;;
6185;SDS011;3126;52.738;8.316;2022-10-18T01:13:54;52.83;;;26.65;;
6185;SDS011;3126;52.738;8.316;2022-10-18T01:18:58;38.60;;;22.90;;
6185;SDS011;3126;52.738;8.316;2022-10-18T01:34:57;36.60;;;21.60;;
6185;SDS011;3126;52.738;8.316;2022-10-18T01:39:59;37.88;;;23.17;;
6185;SDS011;3126;52.738;8.316;2022-10-18T01:45:02;34.58;;;22.08;;
6185;SDS011;3126;52.738;8.316;2022-10-18T01:50:06;35.67;;;20.70;;
6185;SDS011;3126;52.738;8.316;2022-10-18T01:55:08;32.80;;;20.35;;
6185;SDS011;3126;52.738;8.316;2022-10-18T02:10:28;48.70;;;19.05;;
6185;SDS011;3126;52.738;8.316;2022-10-18T02:15:38;35.75;;;20.45;;
6185;SDS011;3126;52.738;8.316;2022-10-18T02:25:40;34.78;;;20.60;;
6185;SDS011;3126;52.738;8.316;2022-10-18T02:30:51;40.78;;;20.38;;
6185;SDS011;3126;52.738;8.316;2022-10-18T02:36:02;41.00;;;18.15;;
6185;SDS011;3126;52.738;8.316;2022-10-18T02:41:09;71.78;;;21.17;;
6185;SDS011;3126;52.738;8.316;2022-10-18T02:46:10;102.80;;;22.45;;
6185;SDS011;3126;52.738;8.316;2022-10-18T02:51:10;54.88;;;17.98;;
6185;SDS011;3126;52.738;8.316;2022-10-18T02:56:11;33.15;;;16.98;;
6185;SDS011;3126;52.738;8.316;2022-10-18T03:01:11;43.35;;;18.20;;
6185;SDS011;3126;52.738;8.316;2022-10-18T03:06:12;23.17;;;15.48;;
6185;SDS011;3126;52.738;8.316;2022-10-18T03:11:13;44.42;;;17.63;;
6185;SDS011;3126;52.738;8.316;2022-10-18T03:16:13;42.85;;;18.30;;
6185;SDS011;3126;52.738;8.316;2022-10-18T03:21:14;25.40;;;16.63;;
6185;SDS011;3126;52.738;8.316;2022-10-18T03:26:14;40.00;;;15.85;;
6185;SDS011;3126;52.738;8.316;2022-10-18T03:31:15;29.05;;;16.67;;
6185;SDS011;3126;52.738;8.316;2022-10-18T03:36:16;82.60;;;21.60;;
6185;SDS011;3126;52.738;8.316;2022-10-18T03:41:16;31.27;;;16.42;;
6185;SDS011;3126;52.738;8.316;2022-10-18T03:46:17;27.08;;;16.83;;
6185;SDS011;3126;52.738;8.316;2022-10-18T03:51:17;59.90;;;19.55;;
6185;SDS011;3126;52.738;8.316;2022-10-18T03:56:18;61.92;;;17.88;;
6185;SDS011;3126;52.738;8.316;2022-10-18T04:01:18;32.13;;;16.08;;
6185;SDS011;3126;52.738;8.316;2022-10-18T04:06:19;56.70;;;17.35;;
6185;SDS011;3126;52.738;8.316;2022-10-18T04:11:19;42.55;;;17.75;;
6185;SDS011;3126;52.738;8.316;2022-10-18T04:16:20;77.60;;;18.55;;
6185;SDS011;3126;52.738;8.316;2022-10-18T04:21:20;23.15;;;15.60;;
6185;SDS011;3126;52.738;8.316;2022-10-18T04:26:21;27.15;;;15.10;;
6185;SDS011;3126;52.738;8.316;2022-10-18T04:31:22;35.65;;;16.92;;
6185;SDS011;3126;52.738;8.316;2022-10-18T04:36:22;27.52;;;16.25;;
6185;SDS011;3126;52.738;8.316;2022-10-18T04:41:23;25.98;;;14.50;;
6185;SDS011;3126;52.738;8.316;2022-10-18T04:46:23;33.65;;;16.17;;
6185;SDS011;3126;52.738;8.316;2022-10-18T04:51:24;38.85;;;17.17;;
6185;SDS011;3126;52.738;8.316;2022-10-18T04:56:24;34.15;;;17.20;;
6185;SDS011;3126;52.738;8.316;2022-10-18T05:01:25;31.27;;;18.58;;
6185;SDS011;3126;52.738;8.316;2022-10-18T05:06:25;26.67;;;15.55;;
6185;SDS011;3126;52.738;8.316;2022-10-18T05:11:26;68.18;;;19.90;;
6185;SDS011;3126;52.738;8.316;2022-10-18T05:16:27;79.10;;;19.58;;
6185;SDS011;3126;52.738;8.316;2022-10-18T05:21:27;50.13;;;19.23;;
6185;SDS011;3126;52.738;8.316;2022-10-18T05:26:28;46.72;;;19.75;;
6185;SDS011;3126;52.738;8.316;2022-10-18T05:31:28;107.90;;;23.23;;
6185;SDS011;3126;52.738;8.316;2022-10-18T05:36:29;74.13;;;21.88;;
6185;SDS011;3126;52.738;8.316;2022-10-18T05:41:30;54.30;;;19.67;;
6185;SDS011;3126;52.738;8.316;2022-10-18T05:46:31;85.07;;;19.65;;
6185;SDS011;3126;52.738;8.316;2022-10-18T05:51:32;134.52;;;26.67;;
6185;SDS011;3126;52.738;8.316;2022-10-18T05:56:32;50.17;;;20.13;;
6185;SDS011;3126;52.738;8.316;2022-10-18T06:01:33;53.90;;;18.23;;
6185;SDS011;3126;52.738;8.316;2022-10-18T06:06:34;30.10;;;17.38;;
6185;SDS011;3126;52.738;8.316;2022-10-18T06:11:35;72.72;;;21.25;;
6185;SDS011;3126;52.738;8.316;2022-10-18T06:16:36;42.45;;;17.90;;
6185;SDS011;3126;52.738;8.316;2022-10-18T06:21:36;27.33;;;15.85;;
6185;SDS011;3126;52.738;8.316;2022-10-18T06:26:37;38.50;;;17.08;;
6185;SDS011;3126;52.738;8.316;2022-10-18T06:31:37;26.88;;;14.85;;
6185;SDS011;3126;52.738;8.316;2022-10-18T06:36:38;45.42;;;15.85;;
6185;SDS011;3126;52.738;8.316;2022-10-18T06:41:39;32.85;;;15.20;;
6185;SDS011;3126;52.738;8.316;2022-10-18T06:46:39;35.38;;;15.57;;
6185;SDS011;3126;52.738;8.316;2022-10-18T06:51:41;83.60;;;19.17;;
6185;SDS011;3126;52.738;8.316;2022-10-18T06:56:42;30.13;;;14.70;;
6185;SDS011;3126;52.738;8.316;2022-10-18T07:01:43;36.72;;;15.10;;
6185;SDS011;3126;52.738;8.316;2022-10-18T07:06:43;59.97;;;15.73;;
6185;SDS011;3126;52.738;8.316;2022-10-18T07:11:44;44.92;;;14.60;;
6185;SDS011;3126;52.738;8.316;2022-10-18T07:16:44;31.85;;;14.57;;
6185;SDS011;3126;52.738;8.316;2022-10-18T07:21:45;20.83;;;11.48;;
6185;SDS011;3126;52.738;8.316;2022-10-18T07:26:45;20.00;;;11.27;;
6185;SDS011;3126;52.738;8.316;2022-10-18T07:31:46;26.05;;;11.48;;
6185;SDS011;3126;52.738;8.316;2022-10-18T07:36:46;26.15;;;11.80;;
6185;SDS011;3126;52.738;8.316;2022-10-18T07:41:47;26.27;;;13.15;;
6185;SDS011;3126;52.738;8.316;2022-10-18T07:46:48;31.38;;;13.20;;
6185;SDS011;3126;52.738;8.316;2022-10-18T07:51:48;25.95;;;12.57;;
6185;SDS011;3126;52.738;8.316;2022-10-18T07:56:49;24.08;;;12.35;;
6185;SDS011;3126;52.738;8.316;2022-10-18T08:01:49;24.10;;;11.95;;
6185;SDS011;3126;52.738;8.316;2022-10-18T08:06:50;19.45;;;12.15;;
6185;SDS011;3126;52.738;8.316;2022-10-18T08:11:51;25.80;;;14.27;;
6185;SDS011;3126;52.738;8.316;2022-10-18T08:16:51;23.80;;;13.02;;
6185;SDS011;3126;52.738;8.316;2022-10-18T08:21:52;24.88;;;12.85;;
6185;SDS011;3126;52.738;8.316;2022-10-18T08:26:52;25.13;;;12.93;;
6185;SDS011;3126;52.738;8.316;2022-10-18T08:31:53;23.70;;;12.45;;
6185;SDS011;3126;52.738;8.316;2022-10-18T08:36:53;23.17;;;11.98;;
6185;SDS011;3126;52.738;8.316;2022-10-18T08:47:11;22.40;;;12.32;;
6185;SDS011;3126;52.738;8.316;2022-10-18T08:57:20;20.75;;;12.00;;
6185;SDS011;3126;52.738;8.316;2022-10-18T09:02:34;21.00;;;11.00;;
6185;SDS011;3126;52.738;8.316;2022-10-18T09:34:55;20.20;;;11.48;;
6185;SDS011;3126;52.738;8.316;2022-10-18T09:40:19;20.67;;;12.48;;
6185;SDS011;3126;52.738;8.316;2022-10-18T09:45:28;20.30;;;12.02;;
6185;SDS011;3126;52.738;8.316;2022-10-18T09:50:47;24.00;;;12.00;;
6185;SDS011;3126;52.738;8.316;2022-10-18T09:56:16;20.48;;;11.77;;
6185;SDS011;3126;52.738;8.316;2022-10-18T10:01:22;19.70;;;10.95;;
6185;SDS011;3126;52.738;8.316;2022-10-18T10:11:31;18.50;;;11.43;;
6185;SDS011;3126;52.738;8.316;2022-10-18T10:17:04;19.20;;;11.95;;
6185;SDS011;3126;52.738;8.316;2022-10-18T10:32:43;20.13;;;11.40;;
6185;SDS011;3126;52.738;8.316;2022-10-18T10:37:49;18.95;;;11.80;;
6185;SDS011;3126;52.738;8.316;2022-10-18T10:48:06;14.82;;;8.40;;
6185;SDS011;3126;52.738;8.316;2022-10-18T10:53:24;13.93;;;6.82;;
6185;SDS011;3126;52.738;8.316;2022-10-18T10:58:26;12.57;;;7.20;;
6185;SDS011;3126;52.738;8.316;2022-10-18T11:03:32;10.50;;;6.78;;
6185;SDS011;3126;52.738;8.316;2022-10-18T11:08:37;14.00;;;6.40;;
6185;SDS011;3126;52.738;8.316;2022-10-18T11:13:50;7.82;;;4.53;;
6185;SDS011;3126;52.738;8.316;2022-10-18T11:18:56;10.65;;;5.05;;
6185;SDS011;3126;52.738;8.316;2022-10-18T11:24:00;7.53;;;4.15;;
6185;SDS011;3126;52.738;8.316;2022-10-18T12:01:52;10.88;;;3.35;;
6185;SDS011;3126;52.738;8.316;2022-10-18T12:07:03;6.88;;;3.40;;
6185;SDS011;3126;52.738;8.316;2022-10-18T12:12:14;6.32;;;2.50;;
6185;SDS011;3126;52.738;8.316;2022-10-18T12:17:55;6.28;;;2.65;;
6185;SDS011;3126;52.738;8.316;2022-10-18T12:33:41;5.13;;;2.67;;
6185;SDS011;3126;52.738;8.316;2022-10-18T12:39:02;5.63;;;2.10;;
6185;SDS011;3126;52.738;8.316;2022-10-18T12:44:17;8.13;;;2.13;;
6185;SDS011;3126;52.738;8.316;2022-10-18T12:54:28;5.57;;;2.17;;
6185;SDS011;3126;52.738;8.316;2022-10-18T13:04:34;8.27;;;2.42;;
6185;SDS011;3126;52.738;8.316;2022-10-18T13:09:38;7.20;;;2.00;;
6185;SDS011;3126;52.738;8.316;2022-10-18T13:15:00;5.25;;;1.65;;
6185;SDS011;3126;52.738;8.316;2022-10-18T13:35:57;4.15;;;1.70;;
6185;SDS011;3126;52.738;8.316;2022-10-18T13:41:19;4.45;;;1.70;;
6185;SDS011;3126;52.738;8.316;2022-10-18T14:01:45;4.50;;;1.77;;
6185;SDS011;3126;52.738;8.316;2022-10-18T14:06:48;4.28;;;1.67;;
6185;SDS011;3126;52.738;8.316;2022-10-18T14:11:55;6.47;;;1.90;;
6185;SDS011;3126;52.738;8.316;2022-10-18T14:22:45;6.50;;;1.13;;
6185;SDS011;3126;52.738;8.316;2022-10-18T14:28:01;5.25;;;1.15;;
6185;SDS011;3126;52.738;8.316;2022-10-18T14:33:22;5.65;;;1.10;;
6185;SDS011;3126;52.738;8.316;2022-10-18T14:38:28;4.43;;;1.10;;
6185;SDS011;3126;52.738;8.316;2022-10-18T14:43:29;6.30;;;1.90;;
6185;SDS011;3126;52.738;8.316;2022-10-18T14:48:30;6.22;;;1.20;;
6185;SDS011;3126;52.738;8.316;2022-10-18T14:53:31;4.90;;;1.10;;
6185;SDS011;3126;52.738;8.316;2022-10-18T14:58:36;3.20;;;0.98;;
6185;SDS011;3126;52.738;8.316;2022-10-18T15:03:37;12.05;;;2.05;;
6185;SDS011;3126;52.738;8.316;2022-10-18T15:08:38;3.65;;;1.30;;
6185;SDS011;3126;52.738;8.316;2022-10-18T15:13:48;7.18;;;1.70;;
6185;SDS011;3126;52.738;8.316;2022-10-18T15:19:03;4.07;;;1.48;;
6185;SDS011;3126;52.738;8.316;2022-10-18T15:29:29;4.13;;;1.00;;
6185;SDS011;3126;52.738;8.316;2022-10-18T15:34:32;5.35;;;1.30;;
6185;SDS011;3126;52.738;8.316;2022-10-18T15:39:32;6.32;;;1.00;;
6185;SDS011;3126;52.738;8.316;2022-10-18T15:44:46;7.75;;;1.67;;
6185;SDS011;3126;52.738;8.316;2022-10-18T15:54:54;6.75;;;1.02;;
6185;SDS011;3126;52.738;8.316;2022-10-18T15:59:57;6.57;;;1.13;;
6185;SDS011;3126;52.738;8.316;2022-10-18T16:05:02;3.88;;;1.10;;
6185;SDS011;3126;52.738;8.316;2022-10-18T16:10:10;6.20;;;1.60;;
6185;SDS011;3126;52.738;8.316;2022-10-18T16:15:12;8.80;;;1.40;;
6185;SDS011;3126;52.738;8.316;2022-10-18T16:20:22;7.03;;;2.03;;
6185;SDS011;3126;52.738;8.316;2022-10-18T16:25:24;5.57;;;2.47;;
6185;SDS011;3126;52.738;8.316;2022-10-18T16:30:24;6.53;;;2.78;;
6185;SDS011;3126;52.738;8.316;2022-10-18T16:35:30;11.93;;;2.60;;
6185;SDS011;3126;52.738;8.316;2022-10-18T16:40:30;9.32;;;3.05;;
6185;SDS011;3126;52.738;8.316;2022-10-18T16:45:31;5.43;;;2.38;;
6185;SDS011;3126;52.738;8.316;2022-10-18T16:50:31;5.43;;;2.80;;
6185;SDS011;3126;52.738;8.316;2022-10-18T16:55:32;8.65;;;2.60;;
6185;SDS011;3126;52.738;8.316;2022-10-18T17:00:33;8.98;;;2.72;;
6185;SDS011;3126;52.738;8.316;2022-10-18T17:05:33;5.68;;;2.08;;
6185;SDS011;3126;52.738;8.316;2022-10-18T17:10:34;11.25;;;2.10;;
6185;SDS011;3126;52.738;8.316;2022-10-18T17:15:34;6.10;;;1.63;;
6185;SDS011;3126;52.738;8.316;2022-10-18T17:20:35;4.95;;;1.92;;
6185;SDS011;3126;52.738;8.316;2022-10-18T17:25:36;7.72;;;2.53;;
6185;SDS011;3126;52.738;8.316;2022-10-18T17:30:37;5.18;;;1.88;;
6185;SDS011;3126;52.738;8.316;2022-10-18T17:35:38;6.20;;;2.03;;
6185;SDS011;3126;52.738;8.316;2022-10-18T17:40:40;7.13;;;2.60;;
6185;SDS011;3126;52.738;8.316;2022-10-18T17:45:48;9.15;;;2.65;;
6185;SDS011;3126;52.738;8.316;2022-10-18T17:50:55;6.15;;;2.88;;
6185;SDS011;3126;52.738;8.316;2022-10-18T17:55:59;16.65;;;3.75;;
6185;SDS011;3126;52.738;8.316;2022-10-18T18:01:10;9.40;;;2.67;;
6185;SDS011;3126;52.738;8.316;2022-10-18T18:11:15;7.25;;;3.72;;
6185;SDS011;3126;52.738;8.316;2022-10-18T18:16:20;10.65;;;4.00;;
6185;SDS011;3126;52.738;8.316;2022-10-18T18:21:24;7.15;;;3.70;;
6185;SDS011;3126;52.738;8.316;2022-10-18T18:26:26;7.82;;;3.00;;
6185;SDS011;3126;52.738;8.316;2022-10-18T18:31:29;11.10;;;3.70;;
6185;SDS011;3126;52.738;8.316;2022-10-18T18:36:30;13.90;;;3.25;;
6185;SDS011;3126;52.738;8.316;2022-10-18T18:41:31;13.75;;;5.10;;
6185;SDS011;3126;52.738;8.316;2022-10-18T18:46:33;7.63;;;3.50;;
6185;SDS011;3126;52.738;8.316;2022-10-18T18:51:37;10.40;;;3.38;;
6185;SDS011;3126;52.738;8.316;2022-10-18T18:56:39;7.97;;;2.63;;
6185;SDS011;3126;52.738;8.316;2022-10-18T19:01:41;7.70;;;2.70;;
6185;SDS011;3126;52.738;8.316;2022-10-18T19:06:43;8.35;;;2.20;;
6185;SDS011;3126;52.738;8.316;2022-10-18T19:11:45;10.82;;;2.50;;
6185;SDS011;3126;52.738;8.316;2022-10-18T19:16:47;7.47;;;3.35;;
6185;SDS011;3126;52.738;8.316;2022-10-18T19:21:53;7.50;;;2.55;;
6185;SDS011;3126;52.738;8.316;2022-10-18T19:26:55;6.40;;;2.60;;
6185;SDS011;3126;52.738;8.316;2022-10-18T19:31:56;11.23;;;3.88;;
6185;SDS011;3126;52.738;8.316;2022-10-18T19:36:57;15.45;;;3.47;;
6185;SDS011;3126;52.738;8.316;2022-10-18T19:42:00;6.68;;;2.78;;
6185;SDS011;3126;52.738;8.316;2022-10-18T19:47:02;10.57;;;2.70;;
6185;SDS011;3126;52.738;8.316;2022-10-18T19:52:04;9.32;;;2.95;;
6185;SDS011;3126;52.738;8.316;2022-10-18T19:57:05;6.35;;;3.13;;
6185;SDS011;3126;52.738;8.316;2022-10-18T20:02:08;8.75;;;2.35;;
6185;SDS011;3126;52.738;8.316;2022-10-18T20:07:11;7.00;;;2.30;;
6185;SDS011;3126;52.738;8.316;2022-10-18T20:12:12;6.47;;;2.33;;
6185;SDS011;3126;52.738;8.316;2022-10-18T20:17:13;6.55;;;2.38;;
6185;SDS011;3126;52.738;8.316;2022-10-18T20:22:14;9.43;;;1.98;;
6185;SDS011;3126;52.738;8.316;2022-10-18T20:27:15;8.82;;;2.47;;
6185;SDS011;3126;52.738;8.316;2022-10-18T20:32:15;2.45;;;1.20;;
6185;SDS011;3126;52.738;8.316;2022-10-18T20:37:16;8.82;;;1.80;;
6185;SDS011;3126;52.738;8.316;2022-10-18T20:42:16;5.90;;;1.83;;
6185;SDS011;3126;52.738;8.316;2022-10-18T20:47:18;4.93;;;1.83;;
6185;SDS011;3126;52.738;8.316;2022-10-18T20:52:18;5.90;;;2.33;;
6185;SDS011;3126;52.738;8.316;2022-10-18T20:57:19;6.70;;;1.95;;
6185;SDS011;3126;52.738;8.316;2022-10-18T21:02:19;8.10;;;1.60;;
6185;SDS011;3126;52.738;8.316;2022-10-18T21:07:20;4.55;;;1.45;;
6185;SDS011;3126;52.738;8.316;2022-10-18T21:12:20;4.90;;;1.45;;
6185;SDS011;3126;52.738;8.316;2022-10-18T21:17:21;5.00;;;1.70;;
6185;SDS011;3126;52.738;8.316;2022-10-18T21:22:21;6.07;;;2.08;;
6185;SDS011;3126;52.738;8.316;2022-10-18T21:27:23;3.78;;;1.42;;
6185;SDS011;3126;52.738;8.316;2022-10-18T21:32:23;5.70;;;1.90;;
6185;SDS011;3126;52.738;8.316;2022-10-18T21:37:24;5.00;;;1.77;;
6185;SDS011;3126;52.738;8.316;2022-10-18T21:42:24;6.88;;;2.13;;
6185;SDS011;3126;52.738;8.316;2022-10-18T21:47:25;5.55;;;1.88;;
6185;SDS011;3126;52.738;8.316;2022-10-18T21:52:25;4.53;;;2.13;;
6185;SDS011;3126;52.738;8.316;2022-10-18T21:57:26;7.72;;;2.10;;
6185;SDS011;3126;52.738;8.316;2022-10-18T22:02:26;5.82;;;2.58;;
6185;SDS011;3126;52.738;8.316;2022-10-18T22:07:27;4.88;;;1.67;;
6185;SDS011;3126;52.738;8.316;2022-10-18T22:12:28;10.27;;;3.03;;
6185;SDS011;3126;52.738;8.316;2022-10-18T22:17:28;4.78;;;1.83;;
6185;SDS011;3126;52.738;8.316;2022-10-18T22:22:29;5.53;;;1.83;;
6185;SDS011;3126;52.738;8.316;2022-10-18T22:27:30;8.02;;;1.95;;
6185;SDS011;3126;52.738;8.316;2022-10-18T22:32:30;7.68;;;2.33;;
6185;SDS011;3126;52.738;8.316;2022-10-18T22:37:31;5.03;;;2.00;;
6185;SDS011;3126;52.738;8.316;2022-10-18T22:42:31;4.38;;;1.83;;
6185;SDS011;3126;52.738;8.316;2022-10-18T22:47:32;5.93;;;2.40;;
6185;SDS011;3126;52.738;8.316;2022-10-18T22:52:32;8.45;;;2.20;;
6185;SDS011;3126;52.738;8.316;2022-10-18T22:57:33;2.78;;;2.17;;
6185;SDS011;3126;52.738;8.316;2022-10-18T23:02:34;5.32;;;2.10;;
6185;SDS011;3126;52.738;8.316;2022-10-18T23:07:34;4.80;;;2.10;;
6185;SDS011;3126;52.738;8.316;2022-10-18T23:12:35;5.68;;;2.78;;
6185;SDS011;3126;52.738;8.316;2022-10-18T23:17:35;4.43;;;1.95;;
6185;SDS011;3126;52.738;8.316;2022-10-18T23:22:36;6.38;;;2.20;;
6185;SDS011;3126;52.738;8.316;2022-10-18T23:27:36;3.67;;;1.55;;
6185;SDS011;3126;52.738;8.316;2022-10-18T23:32:37;5.03;;;2.08;;
6185;SDS011;3126;52.738;8.316;2022-10-18T23:37:38;4.35;;;2.78;;
6185;SDS011;3126;52.738;8.316;2022-10-18T23:42:39;10.27;;;1.98;;
6185;SDS011;3126;52.738;8.316;2022-10-18T23:47:40;3.35;;;2.05;;
6185;SDS011;3126;52.738;8.316;2022-10-18T23:52:41;5.78;;;1.77;;
6185;SDS011;3126;52.738;8.316;2022-10-18T23:57:42;6.78;;;2.30;;
